Time;durP1;ratioP1;P1;durP2;ratioP2;P2;SDS_P1;SDS_P2;PMS_P1;PMS_P2;Temp;Humidity;BMP_temperature;BMP_pressure;BME280_temperature;BME280_humidity;BME280_pressure;Samples;Min_cycle;Max_cycle;Signal;HPM_P1;HPM_P2
2022/01/11 00:01:22;;;;;;;32.20;19.70;;;;;;;;;;6227128;23;20014;-75
2022/01/11 00:03:48;;;;;;;31.45;19.17;;;;;;;;;;6254171;23;19997;-76
2022/01/11 00:06:28;;;;;;;29.45;18.30;;;;;;;;;;6252210;23;20337;-75
2022/01/11 00:09:00;;;;;;;27.55;18.42;;;;;;;;;;6262110;22;19996;-75
2022/01/11 00:11:26;;;;;;;31.50;18.85;;;;;;;;;;6260884;23;20418;-75
2022/01/11 00:13:53;;;;;;;30.48;18.00;;;;;;;;;;6258995;23;20067;-75
2022/01/11 00:16:19;;;;;;;27.40;17.25;;;;;;;;;;6251065;23;20028;-75
2022/01/11 00:18:47;;;;;;;29.20;18.40;;;;;;;;;;6251034;23;19999;-75
2022/01/11 00:21:13;;;;;;;30.17;19.00;;;;;;;;;;6251521;23;20033;-75
2022/01/11 00:26:07;;;;;;;33.10;18.52;;;;;;;;;;6264709;23;20086;-75
2022/01/11 00:28:34;;;;;;;25.52;16.52;;;;;;;;;;6252853;23;20000;-75
2022/01/11 00:31:05;;;;;;;30.65;17.88;;;;;;;;;;6251191;23;20004;-75
2022/01/11 00:33:46;;;;;;;29.80;17.88;;;;;;;;;;6253536;23;20000;-75
2022/01/11 00:36:12;;;;;;;30.17;18.13;;;;;;;;;;6252599;23;19996;-75
2022/01/11 00:38:39;;;;;;;26.40;16.83;;;;;;;;;;6252108;23;20011;-74
2022/01/11 00:41:06;;;;;;;31.95;18.95;;;;;;;;;;6261358;23;20063;-76
2022/01/11 00:43:33;;;;;;;29.88;18.08;;;;;;;;;;6259010;23;20007;-75
2022/01/11 00:45:59;;;;;;;29.40;18.73;;;;;;;;;;6256763;23;20070;-75
2022/01/11 00:48:26;;;;;;;30.70;17.88;;;;;;;;;;6258318;23;19988;-75
2022/01/11 00:50:52;;;;;;;34.30;21.65;;;;;;;;;;6254984;23;20012;-74
2022/01/11 00:53:38;;;;;;;29.63;18.13;;;;;;;;;;6255554;23;20003;-74
2022/01/11 00:56:04;;;;;;;30.00;18.80;;;;;;;;;;6227815;23;20375;-74
2022/01/11 00:58:33;;;;;;;27.73;17.17;;;;;;;;;;6253536;23;20123;-75
2022/01/11 01:00:59;;;;;;;31.83;17.80;;;;;;;;;;6226080;23;20078;-74
2022/01/11 01:03:25;;;;;;;30.85;18.65;;;;;;;;;;6238081;23;20000;-74
2022/01/11 01:05:52;;;;;;;31.42;18.52;;;;;;;;;;6231476;23;19984;-75
2022/01/11 01:08:18;;;;;;;28.58;17.63;;;;;;;;;;6253119;23;20039;-75
2022/01/11 01:10:47;;;;;;;29.35;17.38;;;;;;;;;;6254690;23;20001;-75
2022/01/11 01:13:17;;;;;;;29.52;17.60;;;;;;;;;;6257820;23;20066;-76
2022/01/11 01:15:47;;;;;;;28.08;17.73;;;;;;;;;;6253547;23;20411;-74
2022/01/11 01:18:16;;;;;;;29.33;18.15;;;;;;;;;;6256774;23;20457;-75
2022/01/11 01:20:50;;;;;;;26.55;16.65;;;;;;;;;;6255192;23;20008;-75
2022/01/11 01:23:22;;;;;;;28.70;17.65;;;;;;;;;;6256827;23;20019;-77
2022/01/11 01:25:51;;;;;;;29.13;17.88;;;;;;;;;;6249743;23;20000;-78
2022/01/11 01:28:17;;;;;;;30.92;17.85;;;;;;;;;;6249387;23;20040;-75
2022/01/11 01:30:46;;;;;;;30.65;18.60;;;;;;;;;;6250390;23;20019;-74
2022/01/11 01:33:13;;;;;;;28.45;17.55;;;;;;;;;;6256996;23;20016;-74
2022/01/11 01:35:39;;;;;;;26.73;17.20;;;;;;;;;;6255774;23;20003;-75
2022/01/11 01:38:06;;;;;;;30.27;18.70;;;;;;;;;;6253176;23;20004;-74
2022/01/11 01:40:39;;;;;;;30.45;16.98;;;;;;;;;;6255194;23;20058;-75
2022/01/11 01:43:08;;;;;;;27.33;17.03;;;;;;;;;;6264866;23;19984;-76
2022/01/11 01:45:35;;;;;;;25.98;16.38;;;;;;;;;;6231787;23;20253;-75
2022/01/11 01:48:04;;;;;;;27.88;16.17;;;;;;;;;;6259457;23;20001;-74
2022/01/11 01:50:31;;;;;;;26.75;16.33;;;;;;;;;;6257051;23;20026;-74
2022/01/11 01:52:58;;;;;;;28.23;17.75;;;;;;;;;;6259455;23;20015;-74
2022/01/11 01:55:24;;;;;;;27.30;17.13;;;;;;;;;;6255986;23;20334;-75
2022/01/11 01:57:54;;;;;;;28.92;17.27;;;;;;;;;;6267677;23;20010;-75
2022/01/11 02:00:29;;;;;;;24.80;16.38;;;;;;;;;;6264424;22;19997;-75
2022/01/11 02:03:05;;;;;;;24.70;15.23;;;;;;;;;;6259249;23;20046;-75
2022/01/11 02:05:31;;;;;;;24.83;15.25;;;;;;;;;;6255765;23;20003;-75
2022/01/11 02:07:58;;;;;;;27.58;15.50;;;;;;;;;;6258423;23;20000;-75
2022/01/11 02:10:26;;;;;;;25.08;14.98;;;;;;;;;;6257956;23;19984;-75
2022/01/11 02:12:52;;;;;;;25.38;16.02;;;;;;;;;;6257473;23;20118;-75
2022/01/11 02:15:18;;;;;;;26.60;15.55;;;;;;;;;;6260726;23;20441;-75
2022/01/11 02:17:45;;;;;;;24.08;15.85;;;;;;;;;;6260342;23;20062;-75
2022/01/11 02:20:16;;;;;;;23.35;15.07;;;;;;;;;;6255182;23;20010;-75
2022/01/11 02:22:42;;;;;;;24.38;15.27;;;;;;;;;;6231063;23;20004;-75
2022/01/11 02:25:10;;;;;;;22.40;14.13;;;;;;;;;;6230315;23;20009;-75
2022/01/11 02:27:36;;;;;;;23.60;14.27;;;;;;;;;;6252085;23;20026;-73
2022/01/11 02:30:06;;;;;;;22.63;13.48;;;;;;;;;;6257566;23;19996;-73
2022/01/11 02:32:32;;;;;;;23.75;14.75;;;;;;;;;;6255731;23;20008;-73
2022/01/11 02:34:58;;;;;;;16.17;9.95;;;;;;;;;;6255658;23;20001;-74
2022/01/11 02:37:24;;;;;;;21.38;13.10;;;;;;;;;;6258419;23;19992;-75
2022/01/11 02:39:50;;;;;;;20.77;11.55;;;;;;;;;;6256336;23;20020;-75
2022/01/11 02:42:16;;;;;;;21.92;13.45;;;;;;;;;;6254408;23;20001;-74
2022/01/11 02:44:42;;;;;;;20.42;12.48;;;;;;;;;;6255528;23;20003;-80
2022/01/11 02:47:10;;;;;;;20.30;12.40;;;;;;;;;;6257961;23;20008;-74
2022/01/11 02:49:36;;;;;;;22.75;13.25;;;;;;;;;;6253432;23;20000;-83
2022/01/11 02:52:03;;;;;;;22.75;13.70;;;;;;;;;;6256331;23;20008;-75
2022/01/11 02:54:29;;;;;;;20.25;13.02;;;;;;;;;;6252817;23;20075;-75
2022/01/11 02:56:55;;;;;;;20.77;13.60;;;;;;;;;;6255971;23;20082;-75
2022/01/11 02:59:21;;;;;;;20.90;13.05;;;;;;;;;;6256633;22;20004;-75
2022/01/11 03:01:47;;;;;;;21.92;14.55;;;;;;;;;;6257487;23;20335;-75
2022/01/11 03:04:13;;;;;;;24.48;15.70;;;;;;;;;;6253741;23;20000;-74
2022/01/11 03:06:43;;;;;;;25.52;15.13;;;;;;;;;;6255187;23;20011;-76
2022/01/11 03:09:10;;;;;;;22.98;12.95;;;;;;;;;;6254357;23;20000;-74
2022/01/11 03:11:36;;;;;;;20.20;12.63;;;;;;;;;;6254148;23;20015;-82
2022/01/11 03:14:03;;;;;;;22.85;13.60;;;;;;;;;;6252714;23;20000;-75
2022/01/11 03:16:29;;;;;;;23.58;14.52;;;;;;;;;;6249994;23;20008;-74
2022/01/11 03:18:55;;;;;;;24.02;14.73;;;;;;;;;;6251791;23;20011;-78
2022/01/11 03:21:22;;;;;;;21.27;12.85;;;;;;;;;;6251480;23;20366;-76
2022/01/11 03:23:48;;;;;;;27.58;14.65;;;;;;;;;;6251852;23;20008;-76
2022/01/11 03:26:14;;;;;;;22.90;13.80;;;;;;;;;;6251742;23;20456;-75
2022/01/11 03:28:40;;;;;;;23.38;14.23;;;;;;;;;;6250978;23;20427;-76
2022/01/11 03:31:06;;;;;;;24.33;15.02;;;;;;;;;;6250860;23;20000;-76
2022/01/11 03:33:32;;;;;;;25.05;15.32;;;;;;;;;;6252473;23;20083;-76
2022/01/11 03:36:01;;;;;;;28.15;15.80;;;;;;;;;;6252186;23;19996;-74
2022/01/11 03:38:27;;;;;;;24.52;15.10;;;;;;;;;;6256695;23;20008;-80
2022/01/11 03:40:53;;;;;;;24.90;14.93;;;;;;;;;;6251190;23;20000;-76
2022/01/11 03:43:22;;;;;;;24.88;14.88;;;;;;;;;;6257039;23;19996;-78
2022/01/11 03:45:48;;;;;;;23.75;15.45;;;;;;;;;;6251850;23;20004;-78
2022/01/11 03:48:15;;;;;;;23.80;15.60;;;;;;;;;;6253924;23;20023;-75
2022/01/11 03:50:42;;;;;;;26.40;15.80;;;;;;;;;;6251556;23;20472;-75
2022/01/11 03:53:12;;;;;;;24.05;14.32;;;;;;;;;;6248435;23;20426;-75
2022/01/11 03:58:12;;;;;;;22.98;14.40;;;;;;;;;;6261463;23;20093;-75
2022/01/11 04:00:41;;;;;;;24.13;14.35;;;;;;;;;;6251507;22;20008;-76
2022/01/11 04:03:08;;;;;;;23.20;14.30;;;;;;;;;;6251059;23;20035;-75
2022/01/11 04:05:34;;;;;;;26.67;15.38;;;;;;;;;;6226007;23;20015;-78
2022/01/11 04:08:00;;;;;;;26.70;15.32;;;;;;;;;;6251800;23;19996;-81
2022/01/11 04:10:26;;;;;;;27.25;15.60;;;;;;;;;;6252269;23;20031;-76
2022/01/11 04:12:53;;;;;;;24.58;15.40;;;;;;;;;;6251903;23;20012;-76
2022/01/11 04:15:22;;;;;;;25.50;15.63;;;;;;;;;;6251000;23;20027;-83
2022/01/11 04:17:48;;;;;;;29.38;16.02;;;;;;;;;;6250975;23;20111;-82
2022/01/11 04:20:19;;;;;;;29.30;17.65;;;;;;;;;;6251285;23;19996;-77
2022/01/11 04:22:46;;;;;;;27.40;16.38;;;;;;;;;;6250648;23;20000;-76
2022/01/11 04:25:12;;;;;;;31.10;18.25;;;;;;;;;;6224067;23;20015;-76
2022/01/11 04:27:38;;;;;;;30.25;16.58;;;;;;;;;;6224164;23;20346;-77
2022/01/11 04:30:07;;;;;;;31.20;16.45;;;;;;;;;;6250766;23;20054;-82
2022/01/11 04:32:35;;;;;;;25.15;16.58;;;;;;;;;;6249749;23;20015;-76
2022/01/11 04:35:01;;;;;;;33.20;17.48;;;;;;;;;;6251206;23;20000;-76
2022/01/11 04:37:27;;;;;;;31.08;17.45;;;;;;;;;;6250803;23;20525;-76
2022/01/11 04:39:53;;;;;;;29.77;16.92;;;;;;;;;;6254575;23;20000;-77
2022/01/11 04:42:19;;;;;;;27.05;16.50;;;;;;;;;;6251936;23;19992;-76
2022/01/11 04:44:45;;;;;;;31.50;16.60;;;;;;;;;;6254889;23;20001;-75
2022/01/11 04:47:11;;;;;;;27.73;16.58;;;;;;;;;;6255044;23;20019;-76
2022/01/11 04:49:37;;;;;;;27.00;16.13;;;;;;;;;;6252838;23;20008;-82
2022/01/11 04:52:03;;;;;;;26.95;16.02;;;;;;;;;;6251625;23;20000;-75
2022/01/11 04:54:29;;;;;;;24.42;15.13;;;;;;;;;;6251901;23;20012;-74
2022/01/11 04:56:58;;;;;;;24.02;14.93;;;;;;;;;;6251708;23;20000;-71
2022/01/11 04:59:24;;;;;;;27.10;14.35;;;;;;;;;;6246826;22;20158;-75
2022/01/11 05:01:52;;;;;;;26.52;14.40;;;;;;;;;;6246753;23;20022;-71
2022/01/11 05:04:18;;;;;;;25.38;14.63;;;;;;;;;;6246657;23;20000;-73
2022/01/11 05:06:47;;;;;;;25.33;14.90;;;;;;;;;;6248561;23;20007;-70
2022/01/11 05:09:13;;;;;;;28.45;16.08;;;;;;;;;;6247952;23;19997;-75
2022/01/11 05:11:39;;;;;;;25.55;15.02;;;;;;;;;;6249410;23;20087;-74
2022/01/11 05:14:05;;;;;;;24.48;14.50;;;;;;;;;;6248310;23;20011;-73
2022/01/11 05:16:33;;;;;;;31.60;16.27;;;;;;;;;;6246242;23;19996;-72
2022/01/11 05:18:59;;;;;;;25.05;15.25;;;;;;;;;;6227850;23;20111;-73
2022/01/11 05:21:25;;;;;;;24.60;14.50;;;;;;;;;;6250257;23;20079;-72
2022/01/11 05:23:51;;;;;;;26.00;14.73;;;;;;;;;;6248880;23;20421;-72
2022/01/11 05:26:18;;;;;;;26.95;14.85;;;;;;;;;;6247457;23;20007;-71
2022/01/11 05:28:46;;;;;;;31.15;16.42;;;;;;;;;;6248514;23;20071;-75
2022/01/11 05:31:14;;;;;;;30.88;17.15;;;;;;;;;;6252481;23;20008;-73
2022/01/11 05:33:40;;;;;;;31.83;16.25;;;;;;;;;;6250798;23;20098;-72
2022/01/11 05:36:06;;;;;;;30.52;16.33;;;;;;;;;;6252306;23;20028;-80
2022/01/11 05:38:33;;;;;;;39.15;18.92;;;;;;;;;;6253897;23;19996;-73
2022/01/11 05:41:01;;;;;;;47.17;22.15;;;;;;;;;;6257791;23;20031;-73
2022/01/11 05:43:27;;;;;;;31.27;17.92;;;;;;;;;;6264008;23;20022;-71
2022/01/11 05:45:53;;;;;;;32.22;19.98;;;;;;;;;;6261210;23;19988;-76
2022/01/11 05:48:20;;;;;;;39.10;22.27;;;;;;;;;;6258626;23;20004;-71
2022/01/11 05:50:46;;;;;;;33.72;19.05;;;;;;;;;;6248478;23;20092;-72
2022/01/11 05:53:12;;;;;;;29.33;16.33;;;;;;;;;;6248310;23;20012;-72
2022/01/11 05:55:39;;;;;;;36.50;19.23;;;;;;;;;;6250752;23;20008;-76
2022/01/11 05:58:06;;;;;;;32.40;19.05;;;;;;;;;;6257360;23;20005;-72
2022/01/11 06:00:32;;;;;;;28.05;14.23;;;;;;;;;;6261171;22;20027;-71
2022/01/11 06:02:58;;;;;;;24.33;12.95;;;;;;;;;;6257431;23;20038;-75
2022/01/11 06:05:25;;;;;;;21.90;12.77;;;;;;;;;;6251910;23;20020;-77
2022/01/11 06:07:54;;;;;;;26.50;13.43;;;;;;;;;;6250680;23;20000;-79
2022/01/11 06:10:20;;;;;;;21.02;11.35;;;;;;;;;;6249087;23;20016;-79
2022/01/11 06:12:46;;;;;;;20.30;12.60;;;;;;;;;;6248015;23;20127;-86
2022/01/11 06:15:12;;;;;;;22.00;12.45;;;;;;;;;;6249305;23;20001;-83
2022/01/11 06:17:38;;;;;;;22.20;12.27;;;;;;;;;;6250482;23;20043;-80
2022/01/11 06:20:05;;;;;;;24.48;13.70;;;;;;;;;;6249648;23;20001;-78
2022/01/11 06:22:32;;;;;;;21.58;13.20;;;;;;;;;;6226750;23;20011;-79
2022/01/11 06:25:03;;;;;;;22.95;13.80;;;;;;;;;;6249690;23;20067;-77
2022/01/11 06:27:31;;;;;;;23.17;13.90;;;;;;;;;;6253671;23;20042;-79
2022/01/11 06:29:57;;;;;;;22.80;14.32;;;;;;;;;;6257420;23;20028;-78
2022/01/11 06:32:23;;;;;;;25.70;15.30;;;;;;;;;;6258374;23;20418;-78
2022/01/11 06:34:49;;;;;;;22.58;14.98;;;;;;;;;;6258179;23;20057;-77
2022/01/11 06:37:17;;;;;;;28.45;17.60;;;;;;;;;;6257602;23;20465;-77
2022/01/11 06:39:48;;;;;;;26.88;17.20;;;;;;;;;;6261923;22;20000;-75
2022/01/11 06:42:14;;;;;;;26.13;16.85;;;;;;;;;;6237102;23;20012;-73
2022/01/11 06:44:41;;;;;;;26.63;15.70;;;;;;;;;;6248822;23;19996;-75
2022/01/11 06:47:12;;;;;;;27.48;17.35;;;;;;;;;;6255406;23;20052;-77
2022/01/11 06:49:38;;;;;;;32.60;18.40;;;;;;;;;;6237403;23;20007;-74
2022/01/11 06:52:05;;;;;;;28.65;16.17;;;;;;;;;;6264821;23;20385;-75
2022/01/11 06:54:38;;;;;;;28.45;16.50;;;;;;;;;;6229810;23;20414;-75
2022/01/11 06:57:07;;;;;;;29.52;18.42;;;;;;;;;;6237134;23;20004;-75
2022/01/11 06:59:35;;;;;;;28.77;17.42;;;;;;;;;;6261398;22;20000;-74
2022/01/11 07:02:04;;;;;;;26.80;16.42;;;;;;;;;;6265099;22;20008;-76
2022/01/11 07:04:31;;;;;;;27.20;16.88;;;;;;;;;;6238059;23;20581;-76
2022/01/11 07:06:57;;;;;;;27.83;16.55;;;;;;;;;;6241076;23;20008;-75
2022/01/11 07:09:23;;;;;;;28.50;16.95;;;;;;;;;;6262051;23;19996;-76
2022/01/11 07:11:50;;;;;;;26.58;16.90;;;;;;;;;;6264977;22;19992;-76
2022/01/11 07:14:16;;;;;;;32.60;17.63;;;;;;;;;;6260935;23;20005;-75
2022/01/11 07:16:48;;;;;;;30.98;17.65;;;;;;;;;;6234494;23;20042;-79
2022/01/11 07:19:16;;;;;;;37.63;23.25;;;;;;;;;;6258768;23;20046;-78
2022/01/11 07:21:46;;;;;;;27.60;16.52;;;;;;;;;;6257679;23;20012;-75
2022/01/11 07:24:13;;;;;;;28.88;16.55;;;;;;;;;;6255246;23;20004;-71
2022/01/11 07:26:39;;;;;;;30.70;17.63;;;;;;;;;;6250939;23;20008;-75
2022/01/11 07:29:07;;;;;;;31.90;16.90;;;;;;;;;;6256358;23;19986;-74
2022/01/11 07:31:33;;;;;;;26.60;15.75;;;;;;;;;;6261257;23;20000;-72
2022/01/11 07:34:01;;;;;;;29.38;16.75;;;;;;;;;;6257263;23;20008;-74
2022/01/11 07:36:27;;;;;;;28.95;16.80;;;;;;;;;;6260607;23;19987;-74
2022/01/11 07:38:58;;;;;;;28.48;15.95;;;;;;;;;;6236362;23;20001;-72
2022/01/11 07:41:24;;;;;;;29.50;17.67;;;;;;;;;;6259964;23;20044;-74
2022/01/11 07:43:50;;;;;;;29.98;16.33;;;;;;;;;;6260675;22;19995;-73
2022/01/11 07:46:16;;;;;;;38.70;17.33;;;;;;;;;;6261575;23;20000;-73
2022/01/11 07:48:42;;;;;;;29.17;17.05;;;;;;;;;;6259501;23;20100;-73
2022/01/11 07:51:09;;;;;;;30.80;18.35;;;;;;;;;;6259268;23;20000;-73
2022/01/11 07:53:37;;;;;;;27.55;16.80;;;;;;;;;;6257756;23;20012;-75
2022/01/11 07:56:03;;;;;;;29.58;16.75;;;;;;;;;;6264362;23;20083;-73
2022/01/11 07:58:36;;;;;;;29.60;17.77;;;;;;;;;;6234418;23;20030;-76
2022/01/11 08:01:02;;;;;;;31.65;18.55;;;;;;;;;;6262280;22;20441;-76
2022/01/11 08:03:28;;;;;;;28.65;17.00;;;;;;;;;;6263548;23;20000;-76
2022/01/11 08:05:57;;;;;;;37.35;22.10;;;;;;;;;;6262533;23;20004;-76
2022/01/11 08:08:26;;;;;;;30.98;16.75;;;;;;;;;;6256155;23;20427;-77
2022/01/11 08:10:53;;;;;;;30.20;18.90;;;;;;;;;;6230329;23;20015;-76
2022/01/11 08:13:22;;;;;;;28.98;17.25;;;;;;;;;;6259332;23;20004;-76
2022/01/11 08:15:48;;;;;;;31.38;20.38;;;;;;;;;;6228703;23;20066;-77
2022/01/11 08:18:14;;;;;;;37.30;24.13;;;;;;;;;;6255035;23;19996;-75
2022/01/11 08:20:40;;;;;;;33.42;18.98;;;;;;;;;;6251726;23;20078;-76
2022/01/11 08:23:06;;;;;;;37.40;21.05;;;;;;;;;;6266093;23;20007;-75
2022/01/11 08:25:36;;;;;;;34.88;19.60;;;;;;;;;;6265933;23;20001;-76
2022/01/11 08:28:05;;;;;;;151.18;66.75;;;;;;;;;;6232561;23;20024;-78
2022/01/11 08:30:33;;;;;;;43.40;23.52;;;;;;;;;;6224916;23;20028;-80
2022/01/11 08:32:59;;;;;;;46.05;28.63;;;;;;;;;;6222401;23;20084;-76
2022/01/11 08:35:25;;;;;;;36.05;20.75;;;;;;;;;;6249856;23;20071;-76
2022/01/11 08:37:52;;;;;;;34.97;21.23;;;;;;;;;;6228251;23;20062;-77
2022/01/11 08:40:18;;;;;;;30.52;18.98;;;;;;;;;;6250050;23;20008;-76
2022/01/11 08:42:44;;;;;;;30.13;18.00;;;;;;;;;;6221397;23;20035;-73
2022/01/11 08:45:11;;;;;;;33.65;20.67;;;;;;;;;;6221980;23;20004;-72
2022/01/11 08:47:37;;;;;;;28.08;17.23;;;;;;;;;;6247506;23;20052;-72
2022/01/11 08:50:05;;;;;;;94.15;58.13;;;;;;;;;;6257050;23;19997;-76
2022/01/11 08:52:32;;;;;;;41.10;24.67;;;;;;;;;;6254704;23;20016;-75
2022/01/11 08:54:59;;;;;;;27.58;16.33;;;;;;;;;;6233815;23;20083;-75
2022/01/11 09:02:40;;;;;;;29.95;16.52;;;;;;;;;;6243616;22;20075;-77
2022/01/11 09:05:07;;;;;;;27.80;16.33;;;;;;;;;;6256696;22;20004;-75
2022/01/11 09:07:33;;;;;;;28.27;15.50;;;;;;;;;;6279795;22;20000;-74
2022/01/11 09:09:59;;;;;;;25.08;13.77;;;;;;;;;;6282118;22;20039;-72
2022/01/11 09:12:25;;;;;;;48.65;23.02;;;;;;;;;;6285380;22;20003;-71
2022/01/11 09:14:51;;;;;;;29.75;14.52;;;;;;;;;;6283386;22;20003;-73
2022/01/11 09:17:17;;;;;;;30.90;16.95;;;;;;;;;;6282161;22;19996;-76
2022/01/11 09:19:44;;;;;;;23.08;13.95;;;;;;;;;;6280241;22;20106;-76
2022/01/11 09:22:11;;;;;;;25.88;14.80;;;;;;;;;;6281072;22;20135;-75
2022/01/11 09:24:37;;;;;;;24.30;13.50;;;;;;;;;;6256133;22;19995;-75
2022/01/11 09:27:08;;;;;;;24.83;14.93;;;;;;;;;;6281519;22;20050;-77
2022/01/11 09:29:38;;;;;;;22.45;13.73;;;;;;;;;;6287100;22;20433;-78
2022/01/11 09:32:11;;;;;;;23.52;14.13;;;;;;;;;;6289066;22;19984;-77
2022/01/11 09:34:57;;;;;;;24.48;14.57;;;;;;;;;;6227668;23;20100;-73
2022/01/11 09:37:27;;;;;;;27.65;14.25;;;;;;;;;;6196181;23;20000;-76
2022/01/11 09:39:54;;;;;;;43.80;16.45;;;;;;;;;;6224612;23;20009;-75
2022/01/11 09:42:25;;;;;;;24.05;15.32;;;;;;;;;;6202452;23;20001;-75
2022/01/11 09:44:52;;;;;;;26.58;14.73;;;;;;;;;;6222583;23;20004;-77
2022/01/11 09:47:19;;;;;;;25.50;14.63;;;;;;;;;;6224020;23;20032;-76
2022/01/11 09:49:45;;;;;;;33.47;17.80;;;;;;;;;;6224900;23;20028;-77
2022/01/11 09:52:12;;;;;;;25.42;15.02;;;;;;;;;;6229367;22;20039;-76
2022/01/11 09:57:44;;;;;;;26.63;15.20;;;;;;;;;;6288449;22;20019;-78
2022/01/11 10:00:11;;;;;;;25.27;15.63;;;;;;;;;;6250696;23;20334;-79
2022/01/11 10:02:37;;;;;;;27.92;17.60;;;;;;;;;;6236437;23;20011;-78
2022/01/11 10:05:06;;;;;;;33.58;19.70;;;;;;;;;;6257871;23;20022;-77
2022/01/11 10:07:33;;;;;;;24.80;15.27;;;;;;;;;;6260659;23;20004;-77
2022/01/11 10:10:03;;;;;;;27.90;17.38;;;;;;;;;;6269117;22;20055;-76
2022/01/11 10:21:33;;;;;;;;;;;;;;;;;;;;;
2022/01/11 10:29:30;;;;;;;27.77;17.90;;;;;;;;;;6240881;22;20050;-75
2022/01/11 10:32:05;;;;;;;30.38;17.33;;;;;;;;;;6254967;23;19996;-78
2022/01/11 10:44:52;;;;;;;;;;;;;;;;;;;;;
2022/01/11 10:48:06;;;;;;;27.92;17.75;;;;;;;;;;6027639;23;19984;-77
2022/01/11 10:56:41;;;;;;;27.35;16.48;;;;;;;;;;5968844;24;20009;-75
2022/01/11 10:59:09;;;;;;;28.77;17.45;;;;;;;;;;5968049;24;20027;-78
2022/01/11 11:01:35;;;;;;;29.02;18.27;;;;;;;;;;5942632;24;20044;-77
2022/01/11 11:04:02;;;;;;;27.48;17.63;;;;;;;;;;5962764;24;20084;-72
2022/01/11 11:06:28;;;;;;;29.77;17.58;;;;;;;;;;5962727;24;20127;-73
2022/01/11 11:08:54;;;;;;;27.60;17.55;;;;;;;;;;5958624;24;20009;-75
2022/01/11 11:11:23;;;;;;;27.45;16.85;;;;;;;;;;5958040;24;20016;-74
2022/01/11 11:13:51;;;;;;;30.88;19.33;;;;;;;;;;5983753;23;20050;-78
2022/01/11 11:16:23;;;;;;;26.73;16.80;;;;;;;;;;6108301;23;20050;-76
2022/01/11 11:18:53;;;;;;;26.88;16.83;;;;;;;;;;6102004;23;20011;-77
2022/01/11 11:21:33;;;;;;;28.40;17.65;;;;;;;;;;6147489;23;20001;-77
2022/01/11 11:24:00;;;;;;;34.28;20.83;;;;;;;;;;6162937;23;20088;-77
2022/01/11 11:26:28;;;;;;;28.83;18.95;;;;;;;;;;6113383;23;20005;-77
2022/01/11 11:28:55;;;;;;;28.58;17.45;;;;;;;;;;6136252;23;20048;-72
2022/01/11 11:31:25;;;;;;;28.08;18.10;;;;;;;;;;6159879;23;20482;-76
2022/01/11 11:33:51;;;;;;;30.08;19.70;;;;;;;;;;6183220;23;20016;-78
2022/01/11 11:36:18;;;;;;;30.65;21.10;;;;;;;;;;6220069;23;20005;-77
2022/01/11 11:38:48;;;;;;;32.33;19.40;;;;;;;;;;6221146;23;20091;-77
2022/01/11 11:41:15;;;;;;;40.33;27.55;;;;;;;;;;6222425;23;20004;-77
2022/01/11 11:43:45;;;;;;;34.78;22.27;;;;;;;;;;6224990;23;20366;-78
2022/01/11 11:46:11;;;;;;;33.17;20.20;;;;;;;;;;6227688;23;20081;-77
2022/01/11 11:48:38;;;;;;;32.03;20.13;;;;;;;;;;6231661;23;20008;-78
2022/01/11 11:51:12;;;;;;;32.22;20.63;;;;;;;;;;6228448;23;20055;-77
2022/01/11 11:53:40;;;;;;;33.50;22.40;;;;;;;;;;6230970;23;20378;-77
2022/01/11 11:56:13;;;;;;;34.03;20.42;;;;;;;;;;6232983;23;20038;-78
2022/01/11 11:58:58;;;;;;;38.10;21.30;;;;;;;;;;6229190;23;20005;-77
2022/01/11 12:02:01;;;;;;;34.20;20.60;;;;;;;;;;6231364;23;20044;-78
2022/01/11 12:04:33;;;;;;;33.20;20.50;;;;;;;;;;6228807;23;20035;-78
2022/01/11 12:07:19;;;;;;;41.28;26.45;;;;;;;;;;6228225;23;20083;-78
2022/01/11 12:09:51;;;;;;;36.33;22.30;;;;;;;;;;6231100;23;20146;-78
2022/01/11 12:12:37;;;;;;;31.60;20.45;;;;;;;;;;6232425;23;20059;-77
2022/01/11 12:15:22;;;;;;;32.08;19.35;;;;;;;;;;6232240;23;20036;-78
2022/01/11 12:17:49;;;;;;;33.22;20.33;;;;;;;;;;6233356;23;20000;-78
2022/01/11 12:20:34;;;;;;;35.42;22.23;;;;;;;;;;6226940;23;20004;-78
2022/01/11 12:23:00;;;;;;;36.25;23.95;;;;;;;;;;6229159;23;20019;-78
2022/01/11 12:25:33;;;;;;;32.67;22.50;;;;;;;;;;6228812;23;20005;-77
2022/01/11 12:28:16;;;;;;;31.70;20.30;;;;;;;;;;6230881;23;20060;-79
2022/01/11 12:30:42;;;;;;;34.45;22.63;;;;;;;;;;6216772;23;20051;-78
2022/01/11 12:33:25;;;;;;;35.17;21.83;;;;;;;;;;6230009;23;20329;-78
2022/01/11 12:36:04;;;;;;;36.50;21.33;;;;;;;;;;6226747;23;20008;-78
2022/01/11 12:38:33;;;;;;;33.95;21.25;;;;;;;;;;6225397;23;20001;-77
2022/01/11 12:41:19;;;;;;;33.58;20.88;;;;;;;;;;6223430;23;20000;-74
2022/01/11 12:43:49;;;;;;;63.78;35.08;;;;;;;;;;6222569;23;20449;-78
2022/01/11 12:46:17;;;;;;;72.82;42.97;;;;;;;;;;6237100;22;20009;-75
2022/01/11 12:48:50;;;;;;;35.42;20.10;;;;;;;;;;6233333;23;20005;-73
2022/01/11 12:51:25;;;;;;;44.08;26.45;;;;;;;;;;6225213;23;20005;-78
2022/01/11 12:54:16;;;;;;;37.75;21.77;;;;;;;;;;6223321;23;20040;-78
2022/01/11 12:56:42;;;;;;;36.60;22.90;;;;;;;;;;6219969;23;20004;-78
2022/01/11 12:59:10;;;;;;;36.08;22.90;;;;;;;;;;6229318;23;20004;-79
2022/01/11 13:01:39;;;;;;;35.97;21.13;;;;;;;;;;6182594;23;20020;-77
2022/01/11 13:04:12;;;;;;;39.08;23.92;;;;;;;;;;6233803;23;20621;-78
2022/01/11 13:06:43;;;;;;;45.20;26.42;;;;;;;;;;6159364;23;20008;-76
2022/01/11 13:09:15;;;;;;;36.50;22.33;;;;;;;;;;6231264;23;20000;-77
2022/01/11 13:11:53;;;;;;;38.50;23.48;;;;;;;;;;6234766;23;19991;-77
2022/01/11 13:14:31;;;;;;;34.15;20.48;;;;;;;;;;6229661;23;20013;-73
2022/01/11 13:17:03;;;;;;;37.25;22.05;;;;;;;;;;6235318;23;20049;-78
2022/01/11 13:19:31;;;;;;;34.35;21.25;;;;;;;;;;6233877;23;20427;-77
2022/01/11 13:22:13;;;;;;;31.30;20.10;;;;;;;;;;6232754;23;20000;-78
2022/01/11 13:24:48;;;;;;;39.35;22.60;;;;;;;;;;6233860;23;20443;-79
2022/01/11 13:27:36;;;;;;;37.53;22.40;;;;;;;;;;6158558;23;20006;-76
2022/01/11 13:30:02;;;;;;;36.10;21.75;;;;;;;;;;6163423;23;20027;-77
2022/01/11 13:32:30;;;;;;;37.05;22.60;;;;;;;;;;6165274;23;20073;-79
2022/01/11 13:35:00;;;;;;;40.50;24.88;;;;;;;;;;6138817;23;20013;-74
2022/01/11 13:37:28;;;;;;;35.05;22.98;;;;;;;;;;6164155;23;20029;-77
2022/01/11 13:39:55;;;;;;;34.85;22.30;;;;;;;;;;6149632;23;20020;-76
2022/01/11 13:42:27;;;;;;;37.78;23.10;;;;;;;;;;6162598;23;20014;-75
2022/01/11 13:44:53;;;;;;;30.50;19.30;;;;;;;;;;6142066;23;20013;-75
2022/01/11 13:47:20;;;;;;;35.97;24.55;;;;;;;;;;6168073;23;20432;-75
2022/01/11 13:49:51;;;;;;;33.58;20.75;;;;;;;;;;6164549;23;20096;-77
2022/01/11 13:52:18;;;;;;;29.52;19.15;;;;;;;;;;6164214;23;20061;-76
2022/01/11 13:54:52;;;;;;;30.60;19.38;;;;;;;;;;6162509;23;20012;-74
2022/01/11 13:57:26;;;;;;;33.00;19.60;;;;;;;;;;6166936;23;20053;-77
2022/01/11 14:00:13;;;;;;;30.90;19.15;;;;;;;;;;6167720;23;20010;-75
2022/01/11 14:02:40;;;;;;;32.47;18.02;;;;;;;;;;6164787;23;20012;-76
2022/01/11 14:05:07;;;;;;;36.58;26.73;;;;;;;;;;6203004;23;19993;-75
2022/01/11 14:07:35;;;;;;;30.98;18.27;;;;;;;;;;6222935;23;20008;-74
2022/01/11 14:10:07;;;;;;;35.42;18.77;;;;;;;;;;6222592;23;20056;-76
2022/01/11 14:12:43;;;;;;;32.97;19.23;;;;;;;;;;6230269;23;19988;-75
2022/01/11 14:15:10;;;;;;;31.52;18.75;;;;;;;;;;6220505;23;20004;-76
2022/01/11 14:17:39;;;;;;;40.30;24.25;;;;;;;;;;6222107;23;20012;-77
2022/01/11 14:20:15;;;;;;;43.17;24.08;;;;;;;;;;6228626;23;20024;-76
2022/01/11 14:22:49;;;;;;;43.05;25.95;;;;;;;;;;6230123;23;20000;-75
2022/01/11 14:25:21;;;;;;;42.42;22.05;;;;;;;;;;6234951;23;19987;-76
2022/01/11 14:27:56;;;;;;;42.15;26.17;;;;;;;;;;6228704;23;20005;-75
2022/01/11 14:30:25;;;;;;;49.78;29.35;;;;;;;;;;6221832;23;20500;-72
2022/01/11 14:32:55;;;;;;;44.10;25.42;;;;;;;;;;6225595;23;20012;-76
2022/01/11 14:35:23;;;;;;;46.85;27.52;;;;;;;;;;6220805;23;20043;-78
2022/01/11 14:38:11;;;;;;;45.08;29.05;;;;;;;;;;6217994;23;20023;-77
2022/01/11 14:40:41;;;;;;;38.97;22.52;;;;;;;;;;6226942;23;20044;-77
2022/01/11 14:43:11;;;;;;;39.40;23.88;;;;;;;;;;6227857;23;19984;-72
2022/01/11 14:45:47;;;;;;;57.58;39.35;;;;;;;;;;6229741;23;20000;-73
2022/01/11 14:48:14;;;;;;;37.03;23.63;;;;;;;;;;6234211;23;20028;-77
2022/01/11 14:50:40;;;;;;;38.53;24.73;;;;;;;;;;6230370;23;20000;-75
2022/01/11 14:53:12;;;;;;;36.22;22.30;;;;;;;;;;6219500;23;20004;-75
2022/01/11 14:55:47;;;;;;;39.05;22.30;;;;;;;;;;6220607;23;20004;-76
2022/01/11 14:58:14;;;;;;;61.20;39.03;;;;;;;;;;6221845;23;19997;-75
2022/01/11 15:00:46;;;;;;;46.50;28.15;;;;;;;;;;6228663;23;20054;-75
2022/01/11 15:03:26;;;;;;;42.28;23.85;;;;;;;;;;6232139;23;20044;-77
2022/01/11 15:06:01;;;;;;;47.28;28.23;;;;;;;;;;6229114;23;20327;-76
2022/01/11 15:08:31;;;;;;;61.78;36.35;;;;;;;;;;6221467;23;20081;-77
2022/01/11 15:11:28;;;;;;;58.70;36.08;;;;;;;;;;6220714;23;20012;-78
2022/01/11 15:13:56;;;;;;;46.97;29.75;;;;;;;;;;6055008;23;20018;-73